Saint Anthony, Idaho
Current Conditions -  °F | °C
As of 5:53 PM on Wednesday 17 Dec 2014 (Local Time) from KRXE Reporting Station
Clear Clear  
Wind Chill: 28°   Ceiling: Unl
Heat Index: 28°   Visibility: 8mi
Dew Point: 27°   Wind: 0mph
Humidity: 96%   Direction: NA
Pressure: 29.99"   Gusts: NA
Location:  43.97°N, 111.68°W
Report Text: KRXE 180053Z AUTO 00000KT 8SM CLR M02/M03 A2999 RMK AO2 SLP184 T10221028
Loading
Personal Weather Stations






























Interactive Weather Map New forecast layout! Learn more

10-Day Weather Forecast

Advertisements
Track Severe Weather on mobile